Terminal Aerodrome Forecast
Issued by NWS Upton, NY

Home | Current Version | Previous Version | Text Only | Print | Product List | Glossary On
Versions: 1 2 3 4 5 6 7 8 9 10 11 12 13 14 15 16 17 18 19 20 21 22 23 24 25
000
FTUS41 KOKX 012300
TAFISP
TAF
KISP 012335Z 0200/0224 24005KT P6SM SCT040 OVC070
     FM020200 VRB04KT 2SM -SN SCT008 SCT015 OVC030
     FM020600 10013KT 1SM -SN OVC005
      TEMPO 0209/0211 1/2SM SN OVC002
     FM021100 09016KT 1SM -FZRASN OVC005
     FM021200 08015KT 1SM +RA BR OVC004
     FM021600 02011KT 2SM RA BR OVC004
     FM021900 31012G19KT 2SM FZRASN OVC006
     FM022200 32019G23KT 2SM -SN BKN008 OVC015=

USA.gov is the U.S. government's official web portal to all federal, state and local government web resources and services.